Time;durP1;ratioP1;P1;durP2;ratioP2;P2;SDS_P1;SDS_P2;PMS_P1;PMS_P2;Temp;Humidity;BMP_temperature;BMP_pressure;BME280_temperature;BME280_humidity;BME280_pressure;Samples;Min_cycle;Max_cycle;Signal;HPM_P1;HPM_P2
2021/11/06 00:02:28;;;;;;;12.00;8.00;;;3.00;99.90;;;;;;5057853;28;20537;-50
2021/11/06 00:04:55;;;;;;;14.33;8.80;;;3.00;99.90;;;;;;5057826;28;21046;-51
2021/11/06 00:07:25;;;;;;;13.73;8.27;;;3.00;99.90;;;;;;5065131;28;21057;-50
2021/11/06 00:09:52;;;;;;;15.73;9.30;;;3.00;99.90;;;;;;5068183;28;20465;-50
2021/11/06 00:12:23;;;;;;;18.20;9.67;;;3.10;99.90;;;;;;5064291;28;20531;-51
2021/11/06 00:14:50;;;;;;;17.53;10.30;;;3.10;99.90;;;;;;5069544;28;20954;-50
2021/11/06 00:17:19;;;;;;;21.83;11.10;;;3.00;99.90;;;;;;5067988;28;21318;-51
2021/11/06 00:19:46;;;;;;;22.83;11.80;;;3.10;99.90;;;;;;5067662;28;20451;-50
2021/11/06 00:22:13;;;;;;;21.23;10.80;;;3.10;99.90;;;;;;5064700;28;20517;-50
2021/11/06 00:24:40;;;;;;;18.60;10.00;;;2.90;99.90;;;;;;5059086;28;20465;-50
2021/11/06 00:27:07;;;;;;;21.23;10.70;;;2.80;99.90;;;;;;5069765;28;20538;-50
2021/11/06 00:29:34;;;;;;;18.63;10.70;;;2.60;99.90;;;;;;5071395;28;20447;-50
2021/11/06 00:32:01;;;;;;;18.10;9.77;;;2.50;99.90;;;;;;5067559;28;20520;-50
2021/11/06 00:34:30;;;;;;;18.33;10.57;;;2.60;99.90;;;;;;5058604;28;20890;-50
2021/11/06 00:36:57;;;;;;;19.37;10.13;;;2.60;99.90;;;;;;5067209;28;20465;-50
2021/11/06 00:39:24;;;;;;;16.07;9.77;;;2.60;99.90;;;;;;5073111;28;20459;-50
2021/11/06 00:41:51;;;;;;;17.07;9.50;;;2.50;99.90;;;;;;5064523;28;20508;-50
2021/11/06 00:44:18;;;;;;;17.87;9.53;;;2.50;99.90;;;;;;5067686;28;20511;-51
2021/11/06 00:46:45;;;;;;;11.93;8.53;;;2.60;99.90;;;;;;5073854;28;20923;-50
2021/11/06 00:49:12;;;;;;;15.33;9.33;;;2.60;99.90;;;;;;5073824;28;21073;-51
2021/11/06 00:51:41;;;;;;;17.23;10.23;;;2.50;99.90;;;;;;5058843;28;20459;-50
2021/11/06 00:54:08;;;;;;;19.47;10.93;;;2.60;99.90;;;;;;5065327;28;20917;-50
2021/11/06 00:56:35;;;;;;;20.97;11.60;;;2.60;99.90;;;;;;5074249;28;20450;-50
2021/11/06 00:59:02;;;;;;;19.97;11.23;;;2.70;99.90;;;;;;5064068;28;20467;-50
2021/11/06 01:01:28;;;;;;;16.43;10.00;;;2.60;99.90;;;;;;5064612;28;20492;-50
2021/11/06 01:03:56;;;;;;;16.37;9.80;;;2.70;99.90;;;;;;5074460;28;20523;-50
2021/11/06 01:06:23;;;;;;;16.80;9.73;;;2.60;99.90;;;;;;5064147;28;20466;-50
2021/11/06 01:08:51;;;;;;;16.93;9.70;;;2.60;99.90;;;;;;5071240;28;21196;-50
2021/11/06 01:11:18;;;;;;;19.60;10.40;;;2.60;99.90;;;;;;5071617;28;20879;-50
2021/11/06 01:13:45;;;;;;;19.23;10.63;;;2.60;99.90;;;;;;5069944;28;21072;-51
2021/11/06 01:16:13;;;;;;;20.80;10.10;;;2.70;99.90;;;;;;5065621;28;20503;-51
2021/11/06 01:18:40;;;;;;;15.73;10.80;;;2.80;99.90;;;;;;5065193;28;20465;-51
2021/11/06 01:21:07;;;;;;;16.70;10.80;;;2.80;99.90;;;;;;5064926;28;20524;-50
2021/11/06 01:23:34;;;;;;;16.93;10.27;;;2.80;99.90;;;;;;5074080;28;20451;-50
2021/11/06 01:26:03;;;;;;;15.90;9.80;;;2.90;99.90;;;;;;5071049;28;20500;-50
2021/11/06 01:28:30;;;;;;;17.10;10.53;;;2.80;99.90;;;;;;5063603;28;20451;-50
2021/11/06 01:30:58;;;;;;;15.67;9.97;;;2.90;99.90;;;;;;5063733;28;20464;-50
2021/11/06 01:33:25;;;;;;;21.73;11.00;;;3.00;99.90;;;;;;5064902;28;20491;-50
2021/11/06 01:35:52;;;;;;;18.17;10.87;;;2.90;99.90;;;;;;5067228;28;20511;-50
2021/11/06 01:38:19;;;;;;;13.87;9.50;;;3.00;99.90;;;;;;5073809;28;20873;-50
2021/11/06 01:40:47;;;;;;;16.60;9.83;;;3.00;99.90;;;;;;5062697;28;20464;-50
2021/11/06 01:43:16;;;;;;;15.63;10.57;;;3.00;99.90;;;;;;5073669;28;20974;-50
2021/11/06 01:45:43;;;;;;;16.50;9.80;;;3.10;99.90;;;;;;5064709;28;20516;-51
2021/11/06 01:48:10;;;;;;;15.03;9.13;;;3.10;99.90;;;;;;5063660;28;20512;-50
2021/11/06 01:50:37;;;;;;;15.40;10.17;;;3.00;99.90;;;;;;5070418;28;20461;-50
2021/11/06 01:53:05;;;;;;;15.10;9.80;;;2.90;99.90;;;;;;5063306;28;20540;-50
2021/11/06 01:55:32;;;;;;;16.27;9.97;;;2.80;99.90;;;;;;5073392;28;20451;-50
2021/11/06 01:58:00;;;;;;;14.90;9.47;;;2.70;99.90;;;;;;5063988;28;20479;-50
2021/11/06 02:00:29;;;;;;;15.43;10.40;;;2.70;99.90;;;;;;5066626;28;20491;-50
2021/11/06 02:02:56;;;;;;;16.60;9.97;;;2.80;99.90;;;;;;5062327;28;20486;-50
2021/11/06 02:05:24;;;;;;;13.53;9.33;;;2.80;99.90;;;;;;5066372;28;20533;-50
2021/11/06 02:07:52;;;;;;;15.87;10.00;;;2.90;99.90;;;;;;5070934;28;20846;-50
2021/11/06 02:10:20;;;;;;;16.30;10.00;;;3.00;99.90;;;;;;5067211;28;20467;-50
2021/11/06 02:12:47;;;;;;;15.57;9.60;;;2.90;99.90;;;;;;5061152;28;20908;-50
2021/11/06 02:15:17;;;;;;;15.10;9.20;;;2.90;99.90;;;;;;5073305;28;20446;-51
2021/11/06 02:17:46;;;;;;;16.90;9.90;;;2.90;99.90;;;;;;5063853;28;20468;-52
2021/11/06 02:20:14;;;;;;;13.43;9.10;;;2.90;99.90;;;;;;5068301;28;20459;-50
2021/11/06 02:22:43;;;;;;;16.77;8.67;;;2.90;99.90;;;;;;5061683;28;20483;-50
2021/11/06 02:25:11;;;;;;;14.27;8.80;;;3.00;99.90;;;;;;5064995;28;20516;-51
2021/11/06 02:27:39;;;;;;;15.60;8.13;;;3.00;99.90;;;;;;5062952;28;20863;-51
2021/11/06 02:30:10;;;;;;;11.43;7.60;;;3.00;99.90;;;;;;5068384;28;20471;-50
2021/11/06 02:32:37;;;;;;;14.03;7.93;;;3.00;99.90;;;;;;5059011;28;20544;-50
2021/11/06 02:35:05;;;;;;;12.00;7.80;;;2.80;99.90;;;;;;5067519;28;20556;-51
2021/11/06 02:37:32;;;;;;;14.07;8.27;;;2.60;99.90;;;;;;5064505;28;20469;-50
2021/11/06 02:40:01;;;;;;;15.40;8.63;;;2.50;99.90;;;;;;5065917;28;20878;-50
2021/11/06 02:42:28;;;;;;;14.23;8.10;;;2.50;99.90;;;;;;5059928;28;20518;-50
2021/11/06 02:44:56;;;;;;;14.73;7.80;;;2.50;99.90;;;;;;5067289;28;20459;-50
2021/11/06 02:47:23;;;;;;;10.93;7.10;;;2.50;99.90;;;;;;5069023;28;20459;-50
2021/11/06 02:49:50;;;;;;;7.80;5.97;;;2.50;99.90;;;;;;5063825;28;20981;-51
2021/11/06 02:52:20;;;;;;;8.37;5.87;;;2.40;99.90;;;;;;5063459;28;20968;-50
2021/11/06 02:54:47;;;;;;;10.30;6.00;;;2.40;99.90;;;;;;5069308;28;21014;-50
2021/11/06 02:57:16;;;;;;;8.10;5.50;;;2.40;99.90;;;;;;5071506;28;20466;-50
2021/11/06 02:59:43;;;;;;;8.63;4.87;;;2.40;99.90;;;;;;5070753;28;21009;-50
2021/11/06 03:02:10;;;;;;;6.73;4.20;;;2.50;99.90;;;;;;5067177;28;20462;-51
2021/11/06 03:04:38;;;;;;;4.90;3.33;;;2.50;99.90;;;;;;5068749;28;20441;-50
2021/11/06 03:07:06;;;;;;;4.80;3.10;;;2.60;99.90;;;;;;5070860;28;20466;-50
2021/11/06 03:09:37;;;;;;;3.83;2.77;;;2.50;99.90;;;;;;5059457;28;20463;-50
2021/11/06 03:12:06;;;;;;;3.00;2.63;;;2.60;99.90;;;;;;5063298;28;20439;-51
2021/11/06 03:14:35;;;;;;;5.13;3.37;;;2.70;99.90;;;;;;5071354;28;20540;-51
2021/11/06 03:17:02;;;;;;;2.67;2.47;;;2.80;99.90;;;;;;5060057;28;20689;-50
2021/11/06 03:19:29;;;;;;;4.23;2.40;;;2.90;99.90;;;;;;5066139;28;20446;-52
2021/11/06 03:21:56;;;;;;;4.23;3.03;;;3.10;99.90;;;;;;5057923;28;20870;-50
2021/11/06 03:24:23;;;;;;;5.77;3.10;;;3.10;99.90;;;;;;5065599;28;20515;-51
2021/11/06 03:26:50;;;;;;;5.80;3.33;;;3.00;99.90;;;;;;5068660;28;20524;-50
2021/11/06 03:29:17;;;;;;;3.30;2.53;;;2.90;99.90;;;;;;5060226;28;20529;-51
2021/11/06 03:31:46;;;;;;;3.60;2.80;;;2.80;99.90;;;;;;5063740;28;20466;-50
2021/11/06 03:34:13;;;;;;;2.10;1.90;;;2.90;99.90;;;;;;5059272;28;20546;-50
2021/11/06 03:36:40;;;;;;;2.90;1.80;;;2.80;99.90;;;;;;5062686;28;20461;-50
2021/11/06 03:39:07;;;;;;;3.07;2.00;;;2.80;99.90;;;;;;5066147;28;20516;-50
2021/11/06 03:41:35;;;;;;;3.30;1.80;;;2.70;99.90;;;;;;5062700;28;20475;-50
2021/11/06 03:44:02;;;;;;;2.43;1.60;;;2.80;99.90;;;;;;5062778;28;20546;-50
2021/11/06 03:46:29;;;;;;;3.37;2.70;;;2.80;99.90;;;;;;5062531;28;20466;-51
2021/11/06 03:48:58;;;;;;;3.10;2.20;;;2.90;99.90;;;;;;5058963;28;20519;-50
2021/11/06 03:51:25;;;;;;;2.73;2.40;;;3.00;99.90;;;;;;5061781;28;20493;-50
2021/11/06 03:53:52;;;;;;;2.20;2.00;;;3.10;99.90;;;;;;5062598;28;20905;-50
2021/11/06 03:56:19;;;;;;;1.80;1.70;;;3.10;99.90;;;;;;5074038;28;20475;-52
2021/11/06 03:58:46;;;;;;;2.07;1.80;;;3.10;99.90;;;;;;5063342;28;20466;-50
2021/11/06 04:01:13;;;;;;;2.37;1.87;;;3.00;99.90;;;;;;5061725;28;20463;-50
2021/11/06 04:03:40;;;;;;;1.80;1.70;;;3.10;99.90;;;;;;5075242;22;20500;-51
2021/11/06 04:06:09;;;;;;;1.80;1.70;;;3.00;99.90;;;;;;5042206;28;20466;-51
2021/11/06 04:08:36;;;;;;;2.90;1.70;;;2.90;99.90;;;;;;5044508;28;20532;-51
2021/11/06 04:11:03;;;;;;;2.40;1.90;;;2.80;99.90;;;;;;5039696;28;20920;-51
2021/11/06 04:13:30;;;;;;;2.40;2.20;;;2.80;99.90;;;;;;5045691;28;20492;-51
2021/11/06 04:15:57;;;;;;;2.63;2.03;;;2.70;99.90;;;;;;5045160;28;20564;-51
2021/11/06 04:18:24;;;;;;;2.53;1.87;;;2.60;99.90;;;;;;5045679;28;20524;-51
2021/11/06 04:20:51;;;;;;;2.00;1.80;;;2.50;99.90;;;;;;5044424;28;20518;-51
2021/11/06 04:23:20;;;;;;;4.30;2.00;;;2.60;99.90;;;;;;5048507;28;20482;-51
2021/11/06 04:25:47;;;;;;;2.00;1.80;;;2.60;99.90;;;;;;5047040;28;20964;-51
2021/11/06 04:28:14;;;;;;;2.90;2.20;;;2.60;99.90;;;;;;5045724;28;21023;-51
2021/11/06 04:30:41;;;;;;;3.40;2.10;;;2.50;99.90;;;;;;5045992;28;20463;-51
2021/11/06 04:33:08;;;;;;;3.17;2.40;;;2.40;99.90;;;;;;5053724;28;20475;-51
2021/11/06 04:35:35;;;;;;;2.93;2.27;;;2.40;99.90;;;;;;5055056;28;20554;-51
2021/11/06 04:38:02;;;;;;;2.63;2.10;;;2.30;99.90;;;;;;5052634;28;21034;-51
2021/11/06 04:40:30;;;;;;;2.80;1.93;;;2.40;99.90;;;;;;5051869;28;20475;-51
2021/11/06 04:42:57;;;;;;;2.73;1.90;;;2.40;99.90;;;;;;5043759;28;21016;-51
2021/11/06 04:45:24;;;;;;;4.20;2.20;;;2.30;99.90;;;;;;5045597;28;21018;-51
2021/11/06 04:47:51;;;;;;;2.93;1.73;;;2.50;99.90;;;;;;5043152;28;20458;-51
2021/11/06 04:50:18;;;;;;;2.50;2.17;;;2.50;99.90;;;;;;5044250;28;22300;-51
2021/11/06 04:52:45;;;;;;;2.10;1.53;;;2.50;99.90;;;;;;5045335;28;20461;-51
2021/11/06 04:55:15;;;;;;;2.00;1.80;;;2.40;99.90;;;;;;5046596;28;20491;-51
2021/11/06 04:57:44;;;;;;;2.70;2.23;;;2.30;99.90;;;;;;5045187;28;20459;-51
2021/11/06 05:00:15;;;;;;;2.00;1.80;;;2.20;99.90;;;;;;5045593;28;20513;-51
2021/11/06 05:02:42;;;;;;;2.23;1.70;;;2.10;99.90;;;;;;5051762;28;20543;-51
2021/11/06 05:05:10;;;;;;;2.03;1.83;;;2.10;99.90;;;;;;5049933;28;20480;-51
2021/11/06 05:07:37;;;;;;;2.70;2.10;;;2.10;99.90;;;;;;5045856;28;20472;-51
2021/11/06 05:10:05;;;;;;;4.70;3.43;;;2.30;99.90;;;;;;5043336;28;20485;-51
2021/11/06 05:12:33;;;;;;;9.17;5.30;;;2.30;99.90;;;;;;5040675;28;20464;-51
2021/11/06 05:15:02;;;;;;;8.00;5.13;;;2.10;99.90;;;;;;5047092;28;20566;-51
2021/11/06 05:17:29;;;;;;;6.30;4.20;;;2.00;99.90;;;;;;5043129;28;20467;-51
2021/11/06 05:19:57;;;;;;;4.47;3.03;;;2.00;99.90;;;;;;5043336;28;20460;-51
2021/11/06 05:22:28;;;;;;;4.00;2.60;;;2.10;99.90;;;;;;5043971;28;20474;-51
2021/11/06 05:24:55;;;;;;;3.20;2.40;;;2.10;99.90;;;;;;5043737;28;20539;-51
2021/11/06 05:27:25;;;;;;;2.73;2.20;;;2.00;99.90;;;;;;5042178;28;20459;-51
2021/11/06 05:29:52;;;;;;;2.90;1.90;;;2.10;99.90;;;;;;5051212;28;20503;-51
2021/11/06 05:32:23;;;;;;;2.70;2.07;;;2.10;99.90;;;;;;5053635;28;20493;-51
2021/11/06 05:34:51;;;;;;;3.60;2.60;;;2.20;99.90;;;;;;5054045;28;20556;-51
2021/11/06 05:37:18;;;;;;;5.23;3.00;;;2.20;99.90;;;;;;5054193;28;20455;-51
2021/11/06 05:39:45;;;;;;;5.20;3.03;;;2.00;99.90;;;;;;5053846;28;20456;-51
2021/11/06 05:42:12;;;;;;;5.83;3.13;;;2.00;99.90;;;;;;5053716;28;20454;-51
2021/11/06 05:44:38;;;;;;;6.77;4.00;;;2.00;99.90;;;;;;5053762;28;20465;-51
2021/11/06 05:47:06;;;;;;;6.80;3.90;;;2.00;99.90;;;;;;5052988;28;20455;-51
2021/11/06 05:49:34;;;;;;;4.67;3.13;;;2.00;99.90;;;;;;5053590;28;20513;-51
2021/11/06 05:52:01;;;;;;;6.00;3.17;;;2.10;99.90;;;;;;5053581;28;20835;-51
2021/11/06 05:54:28;;;;;;;5.77;3.53;;;2.10;99.90;;;;;;5053050;28;20491;-51
2021/11/06 05:56:55;;;;;;;6.77;4.50;;;2.20;99.90;;;;;;5047733;28;21035;-51
2021/11/06 05:59:22;;;;;;;6.13;3.90;;;2.10;99.90;;;;;;5052649;28;20444;-51
2021/11/06 06:01:50;;;;;;;5.73;3.40;;;2.00;99.90;;;;;;5053122;28;20516;-51
2021/11/06 06:04:17;;;;;;;5.40;3.57;;;2.00;99.90;;;;;;5051236;28;20472;-52
2021/11/06 06:06:45;;;;;;;3.17;2.20;;;2.00;99.90;;;;;;5053050;28;20454;-51
2021/11/06 06:09:12;;;;;;;5.10;2.60;;;2.00;99.90;;;;;;5052721;28;20883;-51
2021/11/06 06:11:39;;;;;;;3.07;2.00;;;2.10;99.90;;;;;;5052617;28;20878;-51
2021/11/06 06:14:06;;;;;;;3.60;2.50;;;2.10;99.90;;;;;;5049570;28;21270;-51
2021/11/06 06:16:33;;;;;;;5.73;3.43;;;2.00;99.90;;;;;;5052957;28;20444;-52
2021/11/06 06:19:00;;;;;;;4.60;3.30;;;1.90;99.90;;;;;;5051894;28;20448;-51
2021/11/06 06:21:27;;;;;;;5.73;3.40;;;2.00;99.90;;;;;;5052773;28;20447;-51
2021/11/06 06:23:57;;;;;;;6.90;3.50;;;2.00;99.90;;;;;;5053179;28;20475;-51
2021/11/06 06:26:24;;;;;;;4.63;3.90;;;1.90;99.90;;;;;;5052159;28;20555;-51
2021/11/06 06:28:51;;;;;;;6.80;4.60;;;1.90;99.90;;;;;;5052853;28;20505;-51
2021/11/06 06:31:18;;;;;;;5.70;4.03;;;2.00;99.90;;;;;;5052298;28;20816;-51
2021/11/06 06:33:45;;;;;;;4.30;3.60;;;2.00;99.90;;;;;;5052884;28;20475;-51
2021/11/06 06:36:12;;;;;;;6.30;4.10;;;2.00;99.90;;;;;;5051440;28;20906;-51
2021/11/06 06:38:39;;;;;;;14.20;5.70;;;2.00;99.90;;;;;;5051180;28;20886;-52
2021/11/06 06:41:08;;;;;;;16.20;6.57;;;2.00;99.90;;;;;;5047865;28;20454;-51
2021/11/06 06:43:35;;;;;;;6.87;4.90;;;2.10;99.90;;;;;;5051730;28;20494;-51
2021/11/06 06:46:02;;;;;;;5.97;4.20;;;2.10;99.90;;;;;;5057195;28;20455;-52
2021/11/06 06:48:29;;;;;;;5.47;4.17;;;2.10;99.90;;;;;;5052471;28;20498;-51
2021/11/06 06:50:56;;;;;;;4.83;3.40;;;2.10;99.90;;;;;;5052572;28;20450;-52
2021/11/06 06:53:23;;;;;;;5.77;3.37;;;2.20;99.90;;;;;;5052378;28;20475;-52
2021/11/06 06:55:50;;;;;;;4.97;3.73;;;2.20;99.90;;;;;;5056490;28;20482;-51
2021/11/06 06:58:19;;;;;;;5.50;3.70;;;2.30;99.90;;;;;;5052132;28;20454;-52
2021/11/06 07:00:46;;;;;;;4.93;3.50;;;2.40;99.90;;;;;;5052288;28;20504;-51
2021/11/06 07:03:13;;;;;;;5.30;3.50;;;2.50;99.90;;;;;;5051969;28;20485;-52
2021/11/06 07:05:40;;;;;;;5.57;3.83;;;2.60;99.90;;;;;;5052127;28;20932;-51
2021/11/06 07:08:07;;;;;;;3.43;2.70;;;2.60;99.90;;;;;;5051420;28;20459;-51
2021/11/06 07:10:35;;;;;;;4.40;3.13;;;2.60;99.90;;;;;;5050266;28;20466;-52
2021/11/06 07:13:02;;;;;;;4.30;3.70;;;2.70;99.90;;;;;;5051876;28;20888;-51
2021/11/06 07:15:31;;;;;;;7.10;4.47;;;2.80;99.90;;;;;;5051662;28;20479;-52
2021/11/06 07:17:58;;;;;;;4.10;3.27;;;2.90;99.90;;;;;;5050888;28;20952;-51
2021/11/06 07:20:26;;;;;;;7.67;3.57;;;3.30;99.90;;;;;;5051191;28;20444;-51
2021/11/06 07:22:53;;;;;;;4.07;2.57;;;3.30;99.90;;;;;;5050878;28;20495;-51
2021/11/06 07:25:20;;;;;;;3.27;2.97;;;3.20;99.90;;;;;;5051892;28;20451;-52
2021/11/06 07:27:48;;;;;;;3.57;2.87;;;3.30;99.90;;;;;;5051741;28;21000;-52
2021/11/06 07:30:15;;;;;;;3.70;3.30;;;3.40;99.90;;;;;;5051424;28;20851;-51
2021/11/06 07:32:44;;;;;;;2.23;2.03;;;3.50;99.90;;;;;;5051010;28;20471;-52
2021/11/06 07:35:11;;;;;;;2.70;2.40;;;3.50;99.90;;;;;;5049765;28;20533;-51
2021/11/06 07:37:38;;;;;;;3.20;2.30;;;3.50;99.90;;;;;;5051851;28;20505;-51
2021/11/06 07:40:08;;;;;;;3.60;2.70;;;3.40;99.90;;;;;;5047211;28;20509;-52
2021/11/06 07:42:37;;;;;;;4.83;2.60;;;3.70;99.90;;;;;;5051509;28;20452;-51
2021/11/06 07:45:05;;;;;;;2.60;2.30;;;3.70;99.90;;;;;;5050972;28;20456;-51
2021/11/06 07:47:33;;;;;;;2.60;2.23;;;3.90;99.90;;;;;;5048349;28;20451;-52
2021/11/06 07:50:01;;;;;;;2.70;2.13;;;3.90;99.90;;;;;;5050931;28;20455;-51
2021/11/06 07:52:28;;;;;;;2.13;1.90;;;4.00;99.90;;;;;;5051128;28;20968;-51
2021/11/06 07:54:55;;;;;;;3.17;2.60;;;4.20;99.90;;;;;;5052674;28;20480;-52
2021/11/06 07:57:23;;;;;;;2.70;2.10;;;4.40;99.90;;;;;;5050788;28;20456;-51
2021/11/06 07:59:50;;;;;;;6.10;2.30;;;4.50;99.90;;;;;;5050781;28;20455;-52
2021/11/06 08:02:17;;;;;;;2.50;1.93;;;4.70;99.90;;;;;;5049406;28;20513;-51
2021/11/06 08:04:44;;;;;;;2.80;2.40;;;4.90;99.90;;;;;;5038518;28;20536;-51
2021/11/06 08:07:13;;;;;;;3.77;2.60;;;5.10;99.90;;;;;;5050046;28;20451;-51
2021/11/06 08:09:40;;;;;;;3.40;2.30;;;5.00;99.90;;;;;;5051434;28;20505;-52
2021/11/06 08:12:07;;;;;;;2.37;2.10;;;4.90;99.90;;;;;;5049702;28;20949;-51
2021/11/06 08:14:34;;;;;;;3.33;2.20;;;5.10;99.90;;;;;;5050790;28;20500;-51
2021/11/06 08:17:02;;;;;;;5.00;2.90;;;5.20;99.90;;;;;;5050949;28;20455;-51
2021/11/06 08:19:30;;;;;;;2.87;2.40;;;5.30;99.90;;;;;;5051054;28;20546;-52
2021/11/06 08:21:57;;;;;;;3.40;2.33;;;5.60;99.90;;;;;;5050278;28;20530;-53
2021/11/06 08:24:26;;;;;;;1.70;1.60;;;5.70;99.90;;;;;;5049861;28;20473;-52
2021/11/06 08:26:53;;;;;;;1.67;1.30;;;5.90;99.90;;;;;;5050988;28;20520;-52
2021/11/06 08:29:20;;;;;;;2.00;1.40;;;5.90;99.90;;;;;;5050691;28;20541;-52
2021/11/06 08:31:47;;;;;;;1.27;1.17;;;6.10;99.90;;;;;;5050757;28;20517;-52
2021/11/06 08:34:14;;;;;;;1.97;1.33;;;6.30;99.90;;;;;;5050364;28;20534;-52
2021/11/06 08:36:41;;;;;;;1.30;1.10;;;6.20;99.90;;;;;;5050074;28;20531;-53
2021/11/06 08:39:08;;;;;;;1.57;1.00;;;6.30;99.90;;;;;;5050405;28;20542;-52
2021/11/06 08:41:37;;;;;;;1.20;1.10;;;6.50;99.90;;;;;;5050954;28;20502;-52
2021/11/06 08:44:04;;;;;;;2.27;1.60;;;7.10;99.90;;;;;;5050823;28;20471;-52
2021/11/06 08:46:31;;;;;;;1.40;1.17;;;7.80;99.90;;;;;;5050830;28;20884;-52
2021/11/06 08:48:58;;;;;;;1.60;1.50;;;8.30;99.90;;;;;;5050980;28;20510;-52
2021/11/06 08:51:25;;;;;;;2.87;1.80;;;8.80;99.90;;;;;;5050618;28;20448;-53
2021/11/06 08:53:52;;;;;;;1.43;1.33;;;9.10;99.90;;;;;;5050108;28;20471;-52
2021/11/06 08:56:19;;;;;;;1.43;1.20;;;9.20;99.90;;;;;;5050557;28;20519;-52
2021/11/06 08:58:48;;;;;;;2.60;1.40;;;9.00;99.90;;;;;;5052277;28;20886;-52
2021/11/06 09:01:15;;;;;;;1.43;1.33;;;9.20;99.90;;;;;;5054007;28;20452;-52
2021/11/06 09:03:42;;;;;;;2.40;1.40;;;9.60;99.90;;;;;;5054316;28;20485;-52
2021/11/06 09:06:09;;;;;;;1.83;1.00;;;9.60;99.90;;;;;;5053734;28;20443;-52
2021/11/06 09:08:36;;;;;;;1.63;1.20;;;9.50;99.90;;;;;;5053054;28;20447;-51
2021/11/06 09:11:06;;;;;;;1.37;1.27;;;9.80;99.90;;;;;;5054260;28;20447;-53
2021/11/06 09:13:33;;;;;;;1.50;1.40;;;9.90;99.90;;;;;;5054238;28;20464;-52
2021/11/06 09:16:03;;;;;;;2.23;1.50;;;9.90;99.90;;;;;;5053241;28;20544;-52
2021/11/06 09:18:30;;;;;;;1.50;1.37;;;9.90;99.90;;;;;;5053662;28;20459;-52
2021/11/06 09:20:57;;;;;;;1.80;1.60;;;10.00;99.90;;;;;;5053231;28;20938;-53
2021/11/06 09:23:25;;;;;;;1.33;1.23;;;9.90;99.90;;;;;;5054133;28;20467;-52
2021/11/06 09:25:52;;;;;;;3.20;1.90;;;10.00;99.90;;;;;;5053780;28;20494;-53
2021/11/06 09:28:19;;;;;;;1.50;1.40;;;10.10;99.90;;;;;;5053989;28;20938;-53
2021/11/06 09:30:46;;;;;;;4.87;1.63;;;10.50;99.90;;;;;;5053768;28;20525;-53
2021/11/06 09:33:14;;;;;;;2.40;1.70;;;10.60;99.90;;;;;;5053633;28;20529;-52
2021/11/06 09:35:42;;;;;;;1.83;1.73;;;10.80;99.90;;;;;;5053351;28;20483;-52
2021/11/06 09:38:09;;;;;;;1.80;1.60;;;10.60;99.90;;;;;;5053641;28;20522;-52
2021/11/06 09:40:36;;;;;;;1.50;1.40;;;10.30;99.90;;;;;;5053673;28;20447;-52
2021/11/06 09:43:03;;;;;;;1.60;1.50;;;10.40;99.90;;;;;;5053182;28;20467;-53
2021/11/06 09:45:31;;;;;;;2.57;1.90;;;10.60;99.90;;;;;;5053394;28;20448;-53
2021/11/06 09:47:58;;;;;;;2.40;1.70;;;10.60;99.90;;;;;;5053438;28;20451;-53
2021/11/06 09:50:26;;;;;;;1.63;1.50;;;10.50;99.90;;;;;;5053658;28;20893;-53
2021/11/06 09:52:56;;;;;;;2.63;1.70;;;10.40;99.90;;;;;;5053406;28;20472;-53
2021/11/06 09:55:24;;;;;;;2.00;1.80;;;10.80;99.90;;;;;;5051631;28;20486;-53
2021/11/06 09:57:52;;;;;;;1.87;1.60;;;11.10;99.90;;;;;;5052515;28;21015;-53
2021/11/06 10:00:21;;;;;;;2.50;1.80;;;11.00;99.90;;;;;;5051937;28;20452;-53
2021/11/06 10:02:50;;;;;;;2.60;1.63;;;10.60;99.90;;;;;;5052169;28;20467;-53
2021/11/06 10:05:17;;;;;;;2.00;1.80;;;10.70;99.90;;;;;;5052466;28;20861;-55
2021/11/06 10:07:45;;;;;;;3.10;1.90;;;10.80;99.90;;;;;;5053110;28;20498;-55
2021/11/06 10:10:14;;;;;;;1.90;1.80;;;10.90;99.90;;;;;;5051797;28;20451;-55
2021/11/06 10:12:48;;;;;;;1.90;1.80;;;11.00;99.90;;;;;;5040544;28;20452;-55
2021/11/06 10:15:17;;;;;;;1.73;1.60;;;10.90;99.90;;;;;;5052870;28;20861;-55
2021/11/06 10:17:45;;;;;;;4.10;2.10;;;11.30;99.90;;;;;;5033180;28;20445;-54
2021/11/06 10:20:27;;;;;;;2.23;1.90;;;11.60;99.90;;;;;;5047091;28;20447;-55
2021/11/06 10:22:58;;;;;;;1.80;1.70;;;11.30;99.90;;;;;;5052613;28;20993;-55
2021/11/06 10:25:26;;;;;;;1.70;1.60;;;11.50;99.90;;;;;;5052050;28;20899;-55
2021/11/06 10:27:55;;;;;;;2.17;1.90;;;11.10;99.90;;;;;;5052298;28;20983;-55
2021/11/06 10:30:26;;;;;;;2.20;2.03;;;11.30;99.90;;;;;;5052547;28;20811;-54
2021/11/06 10:33:05;;;;;;;3.23;2.00;;;11.20;99.90;;;;;;5052796;28;20562;-54
2021/11/06 10:35:34;;;;;;;2.33;2.13;;;10.80;99.90;;;;;;5052487;28;20848;-54
2021/11/06 10:38:06;;;;;;;2.10;1.90;;;10.80;99.90;;;;;;5052992;28;20479;-55
2021/11/06 10:40:39;;;;;;;2.40;2.00;;;10.90;99.90;;;;;;5052513;28;20452;-54
2021/11/06 10:43:06;;;;;;;2.17;1.97;;;10.40;99.90;;;;;;5052809;28;20525;-55
2021/11/06 10:45:36;;;;;;;2.83;2.20;;;9.90;99.90;;;;;;5052553;28;20452;-54
2021/11/06 10:48:07;;;;;;;6.00;2.10;;;10.10;99.90;;;;;;5052452;28;20455;-54
2021/11/06 10:50:41;;;;;;;5.27;2.70;;;10.30;99.90;;;;;;5052411;28;20525;-55
2021/11/06 10:53:10;;;;;;;9.13;2.30;;;10.30;99.90;;;;;;5052384;28;20576;-54
2021/11/06 10:55:39;;;;;;;3.00;2.37;;;10.50;99.90;;;;;;5051406;28;20941;-54
2021/11/06 10:58:20;;;;;;;1.87;1.67;;;10.40;99.90;;;;;;5052044;28;20505;-54
2021/11/06 11:00:50;;;;;;;5.43;2.40;;;10.40;99.90;;;;;;5051969;28;20453;-54
2021/11/06 11:03:27;;;;;;;2.17;1.97;;;10.10;99.90;;;;;;5052363;28;20479;-55
2021/11/06 11:05:56;;;;;;;1.90;1.80;;;9.80;99.90;;;;;;5051750;28;20489;-54
2021/11/06 11:08:24;;;;;;;2.50;2.30;;;9.80;99.90;;;;;;5052454;28;20501;-55
2021/11/06 11:10:52;;;;;;;2.53;2.33;;;9.70;99.90;;;;;;5052817;28;20513;-54
2021/11/06 11:13:20;;;;;;;2.27;2.10;;;10.00;99.90;;;;;;5053422;28;20467;-55
2021/11/06 11:15:49;;;;;;;2.20;2.00;;;10.00;99.90;;;;;;5050631;28;20451;-55
2021/11/06 11:18:33;;;;;;;2.20;2.07;;;10.30;99.90;;;;;;5054447;28;20213;-55
2021/11/06 11:21:11;;;;;;;2.30;2.10;;;10.30;99.90;;;;;;5051488;28;20517;-55
2021/11/06 11:23:41;;;;;;;2.27;2.07;;;10.20;99.90;;;;;;5052789;28;20991;-54
2021/11/06 11:26:09;;;;;;;2.10;1.90;;;9.90;99.90;;;;;;5051832;28;20501;-54
2021/11/06 11:28:36;;;;;;;4.13;1.80;;;9.90;99.90;;;;;;5051447;28;20459;-54
2021/11/06 11:31:03;;;;;;;1.90;1.80;;;10.20;99.90;;;;;;5051179;28;20451;-54
2021/11/06 11:33:31;;;;;;;2.17;1.70;;;10.50;99.90;;;;;;5051643;28;20471;-54
2021/11/06 11:35:59;;;;;;;1.40;1.30;;;10.50;99.90;;;;;;5051132;28;20476;-54
2021/11/06 11:38:26;;;;;;;1.03;0.93;;;10.50;99.90;;;;;;5051268;28;20452;-54
2021/11/06 11:41:28;;;;;;;1.30;1.20;;;10.50;99.90;;;;;;5051015;28;20451;-55
2021/11/06 11:44:12;;;;;;;4.90;1.40;;;10.50;99.90;;;;;;5050368;28;20536;-54
2021/11/06 11:46:44;;;;;;;2.17;1.40;;;10.50;99.90;;;;;;5050662;28;20494;-55
2021/11/06 11:49:12;;;;;;;1.60;1.50;;;10.50;99.90;;;;;;5049799;28;20464;-56
2021/11/06 11:51:39;;;;;;;2.90;1.80;;;10.40;99.90;;;;;;5046633;28;20448;-54
2021/11/06 11:54:07;;;;;;;1.73;1.30;;;10.30;99.90;;;;;;5047836;28;20488;-55
2021/11/06 11:56:38;;;;;;;2.27;2.07;;;10.40;99.90;;;;;;5050361;28;20503;-53
2021/11/06 11:59:07;;;;;;;2.80;1.30;;;10.20;99.90;;;;;;5050709;28;20451;-55
2021/11/06 12:01:34;;;;;;;3.03;2.10;;;10.30;99.90;;;;;;5050474;28;20451;-54
2021/11/06 12:04:20;;;;;;;1.60;1.50;;;10.10;99.90;;;;;;5050333;28;20471;-53
2021/11/06 12:06:47;;;;;;;1.77;1.67;;;10.10;99.90;;;;;;5051203;28;20467;-55
2021/11/06 12:09:24;;;;;;;2.77;1.77;;;10.10;99.90;;;;;;5050236;28;20818;-54
2021/11/06 12:11:55;;;;;;;1.67;1.57;;;10.20;99.90;;;;;;5049290;28;20452;-55
2021/11/06 12:14:24;;;;;;;1.80;1.70;;;10.30;99.90;;;;;;5051017;28;20529;-54
2021/11/06 12:16:56;;;;;;;1.80;1.60;;;10.10;99.90;;;;;;5051092;28;21008;-55
2021/11/06 12:19:40;;;;;;;3.27;1.63;;;9.90;99.90;;;;;;5050456;28;20470;-55
2021/11/06 12:22:14;;;;;;;1.70;1.60;;;9.70;99.90;;;;;;5051088;28;20445;-54
2021/11/06 12:24:42;;;;;;;2.10;1.67;;;9.70;99.90;;;;;;5051067;28;20507;-54
2021/11/06 12:27:13;;;;;;;1.80;1.63;;;9.70;99.90;;;;;;5051243;28;20455;-54
2021/11/06 12:29:50;;;;;;;1.57;1.47;;;9.60;99.90;;;;;;5044058;28;20448;-54
2021/11/06 12:32:28;;;;;;;1.40;1.30;;;9.70;99.90;;;;;;5050181;28;20451;-54
2021/11/06 12:34:57;;;;;;;1.40;1.30;;;9.80;99.90;;;;;;5045811;28;20539;-54
2021/11/06 12:37:50;;;;;;;1.73;1.63;;;9.90;99.90;;;;;;5039972;28;20479;-54
2021/11/06 12:40:52;;;;;;;2.00;1.27;;;9.90;99.90;;;;;;5050389;28;20676;-54
2021/11/06 12:43:30;;;;;;;1.93;1.20;;;10.00;99.90;;;;;;5046686;28;21068;-53
2021/11/06 12:46:00;;;;;;;1.77;1.30;;;9.80;99.90;;;;;;5054093;28;20501;-54
2021/11/06 12:48:43;;;;;;;1.60;1.50;;;9.80;99.90;;;;;;5052920;28;20478;-54
2021/11/06 12:51:13;;;;;;;1.73;1.40;;;9.60;99.90;;;;;;5053753;28;20810;-55
2021/11/06 12:53:42;;;;;;;1.60;1.50;;;9.60;99.90;;;;;;5054323;28;20481;-54
2021/11/06 12:56:13;;;;;;;1.80;1.70;;;9.50;99.90;;;;;;5053592;28;20451;-55
2021/11/06 12:58:44;;;;;;;1.60;1.50;;;9.40;99.90;;;;;;5054400;28;21077;-54
2021/11/06 13:01:20;;;;;;;2.07;1.87;;;9.60;99.90;;;;;;5050150;28;20459;-55